Time;durP1;ratioP1;P1;durP2;ratioP2;P2;SDS_P1;SDS_P2;PMS_P1;PMS_P2;Temp;Humidity;BMP_temperature;BMP_pressure;BME280_temperature;BME280_humidity;BME280_pressure;Samples;Min_cycle;Max_cycle;Signal;HPM_P1;HPM_P2
2022/06/26 00:01:33;;;;;;;;;3.00;1.67;;;;;17.98;60.67;100797.78;5018877;28;45556;-71
2022/06/26 00:03:59;;;;;;;;;2.00;2.00;;;;;18.09;61.08;100832.91;5022028;28;45497;-72
2022/06/26 00:06:24;;;;;;;;;3.67;2.33;;;;;18.07;60.67;100824.81;5018896;28;45428;-72
2022/06/26 00:08:50;;;;;;;;;2.00;2.00;;;;;18.08;60.98;100832.00;5023630;28;45384;-72
2022/06/26 00:11:16;;;;;;;;;1.00;1.00;;;;;17.89;61.01;100805.94;5026571;28;45290;-71
2022/06/26 00:13:41;;;;;;;;;2.00;2.00;;;;;17.83;61.12;100805.00;5028977;28;45245;-72
2022/06/26 00:16:07;;;;;;;;;3.00;1.00;;;;;17.96;61.30;100832.03;5027542;28;45130;-70
2022/06/26 00:18:32;;;;;;;;;1.00;1.00;;;;;17.90;61.53;100835.69;5025630;28;46192;-70
2022/06/26 00:20:58;;;;;;;;;3.00;3.00;;;;;17.67;61.55;100797.88;5024794;28;45061;-72
2022/06/26 00:23:23;;;;;;;;;1.00;1.00;;;;;17.87;61.91;100830.28;5022535;28;45362;-72
2022/06/26 00:25:48;;;;;;;;;1.00;1.00;;;;;17.84;61.88;100819.44;5016480;28;45425;-71
2022/06/26 00:28:14;;;;;;;;;3.67;2.33;;;;;17.88;62.05;100831.16;5018317;28;46194;-71
2022/06/26 00:30:39;;;;;;;;;1.67;1.67;;;;;17.72;61.79;100801.44;5013728;28;45338;-72
2022/06/26 00:33:05;;;;;;;;;1.00;1.00;;;;;17.84;62.11;100820.31;5014986;28;45551;-72
2022/06/26 00:35:30;;;;;;;;;1.00;1.00;;;;;17.66;61.81;100791.53;5019016;28;45440;-71
2022/06/26 00:37:56;;;;;;;;;1.00;1.00;;;;;17.77;61.84;100806.81;5021904;28;45596;-71
2022/06/26 00:40:21;;;;;;;;;2.00;1.00;;;;;17.85;62.21;100822.13;5021552;28;45416;-71
2022/06/26 00:42:46;;;;;;;;;3.00;1.33;;;;;17.88;61.79;100820.34;5029604;28;45490;-71
2022/06/26 00:45:12;;;;;;;;;2.67;2.00;;;;;17.76;61.97;100810.44;5019996;28;45907;-71
2022/06/26 00:47:37;;;;;;;;;3.00;1.00;;;;;17.38;61.91;100750.16;5025788;28;45930;-72
2022/06/26 00:50:05;;;;;;;;;2.00;2.00;;;;;17.76;62.39;100815.84;5014574;28;45675;-72
2022/06/26 00:52:33;;;;;;;;;3.00;1.00;;;;;17.75;61.91;100817.66;5023471;28;45299;-71
2022/06/26 00:54:59;;;;;;;;;1.00;1.00;;;;;17.59;62.18;100794.28;5015692;28;45392;-72
2022/06/26 00:57:24;;;;;;;;;2.00;2.00;;;;;17.61;62.12;100811.38;5012757;28;45414;-72
2022/06/26 00:59:50;;;;;;;;;3.33;1.67;;;;;17.63;61.97;100812.25;5012216;28;45329;-72
2022/06/26 01:02:16;;;;;;;;;1.00;1.00;;;;;17.81;62.06;100839.25;5014443;28;45556;-72
2022/06/26 01:04:41;;;;;;;;;1.00;1.00;;;;;17.41;61.77;100777.19;5014552;28;45479;-72
2022/06/26 01:07:07;;;;;;;;;6.33;3.00;;;;;17.77;61.88;100831.13;5013277;28;46231;-71
2022/06/26 01:09:33;;;;;;;;;4.67;3.00;;;;;17.28;61.74;100773.59;5019622;28;45539;-72
2022/06/26 01:11:59;;;;;;;;;1.00;1.00;;;;;17.77;61.82;100836.53;5019311;28;45521;-71
2022/06/26 01:14:25;;;;;;;;;3.33;2.67;;;;;17.20;61.36;100744.78;5016895;28;45703;-71
2022/06/26 01:16:50;;;;;;;;;1.00;1.00;;;;;17.56;61.51;100814.06;5014917;28;46079;-71
2022/06/26 01:19:18;;;;;;;;;3.00;2.00;;;;;17.74;61.57;100852.78;5016023;28;45583;-70
2022/06/26 01:21:44;;;;;;;;;3.00;1.00;;;;;17.69;61.87;100852.78;5017970;28;45433;-72
2022/06/26 01:24:10;;;;;;;;;2.33;2.33;;;;;17.65;61.79;100849.19;5014229;28;45271;-71
2022/06/26 01:26:36;;;;;;;;;2.67;1.67;;;;;17.67;61.98;100849.19;5020343;28;46122;-71
2022/06/26 01:29:02;;;;;;;;;3.67;2.00;;;;;17.65;61.95;100856.38;5029685;28;45505;-70
2022/06/26 01:31:28;;;;;;;;;2.00;2.00;;;;;17.64;61.64;100855.50;5029980;28;45270;-70
2022/06/26 01:33:53;;;;;;;;;4.00;2.67;;;;;17.64;61.73;100851.91;5031943;28;45252;-71
2022/06/26 01:36:19;;;;;;;;;2.00;2.00;;;;;17.61;61.80;100846.50;5013443;28;45529;-71
2022/06/26 01:38:45;;;;;;;;;4.33;3.00;;;;;17.51;61.90;100832.09;5013837;28;45458;-71
2022/06/26 01:41:10;;;;;;;;;3.00;1.67;;;;;17.63;61.98;100855.50;5018755;28;45509;-71
2022/06/26 01:43:37;;;;;;;;;3.00;2.67;;;;;17.63;61.97;100859.09;5027589;28;45181;-72
2022/06/26 01:46:03;;;;;;;;;1.00;1.00;;;;;17.63;61.52;100864.47;5013415;28;46222;-70
2022/06/26 01:48:31;;;;;;;;;2.00;2.00;;;;;17.44;61.53;100843.78;5034147;28;45354;-71
2022/06/26 01:50:58;;;;;;;;;3.67;2.00;;;;;17.61;61.62;100874.41;5027098;28;45113;-71
2022/06/26 01:53:25;;;;;;;;;4.33;4.00;;;;;17.65;61.78;100878.00;5013817;28;45414;-71
2022/06/26 01:55:50;;;;;;;;;4.00;2.00;;;;;17.66;61.44;100877.09;5013243;28;46158;-71
2022/06/26 01:58:16;;;;;;;;;6.00;3.00;;;;;17.23;61.38;100788.00;5015032;28;45510;-73
2022/06/26 02:00:43;;;;;;;;;2.00;2.00;;;;;17.46;61.44;100833.91;5014981;28;45467;-71
2022/06/26 02:03:10;;;;;;;;;1.67;1.00;;;;;17.58;61.66;100863.59;5026041;28;45687;-71
2022/06/26 02:05:36;;;;;;;;;3.67;2.00;;;;;17.24;61.30;100797.88;5028318;28;45705;-70
2022/06/26 02:08:03;;;;;;;;;2.00;2.00;;;;;17.63;61.65;100866.28;5024842;28;45438;-71
2022/06/26 02:15:58;;;;;;;;;3.33;2.33;;;;;17.58;62.08;100869.00;5010719;28;45580;-71
2022/06/26 02:18:24;;;;;;;;;5.00;3.00;;;;;17.60;61.51;100864.47;5019341;28;45434;-71
2022/06/26 02:20:50;;;;;;;;;2.00;2.00;;;;;17.43;61.97;100839.28;5030116;28;45263;-70
2022/06/26 02:23:16;;;;;;;;;3.00;2.00;;;;;17.63;61.46;100875.28;5032717;28;45205;-72
2022/06/26 02:25:42;;;;;;;;;3.33;2.67;;;;;17.63;61.29;100877.09;5020364;28;45589;-71
2022/06/26 02:28:08;;;;;;;;;1.00;1.00;;;;;17.47;61.28;100842.00;5016600;28;45344;-70
2022/06/26 02:30:34;;;;;;;;;2.67;2.00;;;;;17.44;61.43;100860.91;5012525;28;46098;-71
2022/06/26 02:32:59;;;;;;;;;1.00;1.00;;;;;17.47;61.25;100862.69;5027676;28;45538;-71
2022/06/26 02:35:26;;;;;;;;;3.67;2.33;;;;;17.38;61.60;100833.00;5013165;28;47383;-70
2022/06/26 02:37:56;;;;;;;;;1.33;1.33;;;;;17.67;61.36;100860.00;5026328;28;45443;-71
2022/06/26 02:40:24;;;;;;;;;4.67;2.00;;;;;17.68;61.05;100868.06;5024482;28;45450;-70
2022/06/26 02:42:50;;;;;;;;;1.67;1.00;;;;;17.50;61.18;100831.19;5016508;28;45312;-71
2022/06/26 02:45:15;;;;;;;;;3.00;1.00;;;;;17.52;61.13;100835.69;5030677;28;46284;-71
2022/06/26 02:47:41;;;;;;;;;3.00;3.00;;;;;17.60;61.25;100856.38;5019295;28;50357;-71
2022/06/26 02:50:07;;;;;;;;;3.00;2.00;;;;;17.60;61.27;100847.38;5016581;28;45375;-70
2022/06/26 02:52:33;;;;;;;;;4.33;1.33;;;;;17.67;61.29;100865.41;5016474;28;45510;-71
2022/06/26 02:54:58;;;;;;;;;2.00;2.00;;;;;17.68;61.28;100862.66;5015809;28;45488;-71
2022/06/26 02:57:24;;;;;;;;;4.00;2.00;;;;;17.72;60.78;100865.38;5021454;28;45463;-70
2022/06/26 02:59:50;;;;;;;;;2.33;2.33;;;;;17.71;60.62;100866.31;5024064;28;45367;-71
2022/06/26 03:02:15;;;;;;;;;2.00;2.00;;;;;17.67;61.01;100874.41;5020595;28;45334;-70
2022/06/26 03:04:42;;;;;;;;;2.33;2.00;;;;;17.46;60.60;100840.19;5019562;28;45599;-71
2022/06/26 03:07:07;;;;;;;;;2.00;2.00;;;;;17.62;60.88;100865.41;5021063;28;45516;-70
2022/06/26 03:09:33;;;;;;;;;3.00;2.00;;;;;17.64;61.06;100871.69;5015147;28;45371;-71
2022/06/26 03:11:58;;;;;;;;;4.00;2.67;;;;;17.20;61.10;100801.50;5017403;28;45543;-71
2022/06/26 03:14:23;;;;;;;;;3.00;3.00;;;;;17.67;60.80;100881.63;5020964;28;46151;-71
2022/06/26 03:16:49;;;;;;;;;3.00;2.00;;;;;17.55;60.89;100866.28;5025581;28;45618;-70
2022/06/26 03:19:14;;;;;;;;;4.00;2.00;;;;;17.62;61.10;100878.91;5015123;28;45482;-71
2022/06/26 03:21:40;;;;;;;;;3.00;3.00;;;;;17.67;60.84;100884.31;5016462;28;45321;-70
2022/06/26 03:24:05;;;;;;;;;2.00;2.00;;;;;17.66;60.34;100882.50;5017913;28;45422;-71
2022/06/26 03:26:32;;;;;;;;;4.67;2.00;;;;;17.65;60.38;100878.00;5014740;28;46226;-70
2022/06/26 03:28:59;;;;;;;;;4.67;3.00;;;;;17.59;60.44;100876.22;5010154;28;45481;-71
2022/06/26 03:31:25;;;;;;;;;4.00;2.00;;;;;17.64;60.54;100896.00;5010787;28;45442;-72
2022/06/26 03:33:50;;;;;;;;;5.00;3.33;;;;;17.66;60.40;100890.63;5016672;28;45918;-71
2022/06/26 03:36:16;;;;;;;;;4.00;2.67;;;;;17.65;59.93;100884.31;5015639;28;45651;-71
2022/06/26 03:38:42;;;;;;;;;3.67;3.33;;;;;17.52;59.68;100865.41;5015664;28;45316;-71
2022/06/26 03:41:08;;;;;;;;;1.67;1.00;;;;;17.24;59.97;100843.78;5016352;28;45330;-71
2022/06/26 03:43:33;;;;;;;;;2.67;2.67;;;;;17.54;59.38;100890.59;5015260;28;45944;-71
2022/06/26 03:45:58;;;;;;;;;3.00;2.67;;;;;17.35;60.27;100860.91;5015331;28;45370;-70
2022/06/26 03:48:24;;;;;;;;;1.00;1.00;;;;;17.36;60.02;100864.53;5015398;28;45343;-71
2022/06/26 03:50:50;;;;;;;;;1.33;1.33;;;;;17.49;59.10;100888.81;5022306;28;45254;-71
2022/06/26 03:53:17;;;;;;;;;3.00;3.00;;;;;17.51;59.47;100886.13;5021741;28;45484;-71
2022/06/26 03:55:42;;;;;;;;;4.00;3.00;;;;;17.44;59.67;100877.13;5030974;28;45394;-71
2022/06/26 03:58:08;;;;;;;;;6.67;2.67;;;;;17.49;59.62;100891.53;5018497;28;45588;-70
2022/06/26 04:00:34;;;;;;;;;2.33;2.33;;;;;17.33;59.29;100861.81;5014850;28;45501;-71
2022/06/26 04:03:04;;;;;;;;;3.00;3.00;;;;;17.48;58.75;100886.13;5014872;28;46554;-71
2022/06/26 04:05:31;;;;;;;;;2.33;2.33;;;;;17.55;58.56;100897.81;5015191;28;45424;-71
2022/06/26 04:07:56;;;;;;;;;7.33;2.00;;;;;17.57;58.85;100913.16;5015468;28;45454;-71
2022/06/26 04:10:22;;;;;;;;;2.67;1.33;;;;;17.58;58.51;100919.44;5015443;28;45582;-71
2022/06/26 04:12:47;;;;;;;;;2.33;2.00;;;;;17.47;58.75;100890.63;5016503;28;46226;-70
2022/06/26 04:15:13;;;;;;;;;6.67;3.33;;;;;17.53;58.01;100891.53;5017346;28;45439;-71
2022/06/26 04:17:38;;;;;;;;;2.00;1.67;;;;;17.76;57.73;100921.25;5015070;28;45468;-71
2022/06/26 04:20:04;;;;;;;;;3.00;1.00;;;;;17.77;57.62;100929.34;5026617;28;45572;-72
2022/06/26 04:22:30;;;;;;;;;2.00;2.00;;;;;17.80;57.72;100931.13;5031009;28;45380;-71
2022/06/26 04:24:55;;;;;;;;;2.33;2.33;;;;;17.84;57.72;100938.34;5022752;28;46039;-70
2022/06/26 04:27:20;;;;;;;;;2.33;2.33;;;;;17.84;57.21;100938.34;5018259;28;45439;-70
2022/06/26 04:29:46;;;;;;;;;2.00;2.00;;;;;17.79;56.81;100924.84;5015246;28;45588;-71
2022/06/26 04:32:12;;;;;;;;;2.33;2.33;;;;;17.89;56.55;100944.69;5016119;28;46130;-71
2022/06/26 04:34:37;;;;;;;;;1.33;1.33;;;;;17.73;56.63;100916.72;5017031;28;45356;-71
2022/06/26 04:37:04;;;;;;;;;2.00;2.00;;;;;17.96;56.62;100951.88;5014891;28;45420;-71
2022/06/26 04:39:29;;;;;;;;;2.00;1.67;;;;;17.94;56.30;100942.88;5014763;28;45542;-71
2022/06/26 04:41:55;;;;;;;;;1.67;1.67;;;;;17.95;56.27;100946.47;5014533;28;45413;-71
2022/06/26 04:44:20;;;;;;;;;2.00;2.00;;;;;17.93;55.80;100940.19;5019427;28;45311;-71
2022/06/26 04:46:46;;;;;;;;;2.00;2.00;;;;;17.87;56.14;100935.69;5027007;28;44918;-71
2022/06/26 04:49:13;;;;;;;;;2.00;2.00;;;;;17.98;55.97;100946.47;5023816;28;45473;-71
2022/06/26 04:51:38;;;;;;;;;2.00;1.33;;;;;17.94;55.62;100944.69;5017530;28;45359;-70
2022/06/26 04:54:05;;;;;;;;;1.00;1.00;;;;;17.95;55.23;100958.22;5018305;28;45387;-71
2022/06/26 04:56:31;;;;;;;;;1.00;1.00;;;;;18.00;55.57;100963.59;5017624;28;45525;-71
2022/06/26 04:58:56;;;;;;;;;2.00;2.00;;;;;18.01;55.32;100955.47;5024104;28;45325;-72
2022/06/26 05:01:23;;;;;;;;;2.00;2.00;;;;;17.98;54.98;100951.88;5022192;28;46269;-70
2022/06/26 05:03:48;;;;;;;;;3.00;1.33;;;;;18.03;54.71;100958.19;5020723;28;45452;-70
2022/06/26 05:06:14;;;;;;;;;0.67;0.33;;;;;18.07;53.29;100957.28;5015605;28;45704;-71
2022/06/26 05:08:39;;;;;;;;;3.33;2.00;;;;;17.97;53.75;100937.47;5015790;28;45495;-72
2022/06/26 05:11:05;;;;;;;;;5.00;2.00;;;;;17.97;53.22;100940.19;5012449;28;48225;-72
2022/06/26 05:13:30;;;;;;;;;4.33;3.33;;;;;18.09;53.02;100973.50;5021636;28;45476;-70
2022/06/26 05:15:57;;;;;;;;;4.33;1.00;;;;;17.92;53.39;100938.34;5026899;28;45276;-71
2022/06/26 05:18:22;;;;;;;;;4.00;2.00;;;;;18.03;53.37;100966.28;5027958;28;45583;-71
2022/06/26 05:20:48;;;;;;;;;1.33;1.00;;;;;18.06;53.57;100971.69;5014508;28;45732;-71
2022/06/26 05:23:14;;;;;;;;;2.00;2.00;;;;;18.17;52.88;100972.59;5015886;28;45950;-71
2022/06/26 05:25:40;;;;;;;;;1.00;1.00;;;;;18.09;53.20;100963.59;5013794;28;45422;-71
2022/06/26 05:28:06;;;;;;;;;1.67;1.67;;;;;18.09;52.96;100949.19;5011409;28;45613;-71
2022/06/26 05:30:31;;;;;;;;;1.33;1.00;;;;;18.12;52.72;100938.38;5020723;28;46129;-71
2022/06/26 05:32:56;;;;;;;;;1.00;1.00;;;;;18.23;52.76;100979.78;5024505;28;44993;-71
2022/06/26 05:35:22;;;;;;;;;2.33;1.00;;;;;18.13;52.47;100953.66;5014675;28;45534;-70
2022/06/26 05:37:47;;;;;;;;;2.67;1.00;;;;;18.20;52.31;100945.53;5018971;28;45592;-70
2022/06/26 05:40:13;;;;;;;;;3.00;2.00;;;;;18.30;52.42;100987.00;5014595;28;45441;-71
2022/06/26 05:42:38;;;;;;;;;2.33;2.33;;;;;18.32;52.42;100987.00;5019472;28;45357;-71
2022/06/26 05:45:04;;;;;;;;;1.33;1.33;;;;;18.30;52.20;100969.88;5013575;28;45566;-71
2022/06/26 05:47:29;;;;;;;;;1.33;1.33;;;;;18.38;52.22;100978.88;5014434;28;45381;-71
2022/06/26 05:49:54;;;;;;;;;2.00;2.00;;;;;18.37;52.00;100990.59;5012836;28;52218;-71
2022/06/26 05:52:20;;;;;;;;;1.67;1.00;;;;;18.36;52.15;100981.59;5028229;28;44982;-71
2022/06/26 05:54:45;;;;;;;;;3.00;3.00;;;;;18.40;52.13;100969.84;5016729;28;45473;-71
2022/06/26 05:57:10;;;;;;;;;1.00;1.00;;;;;18.49;51.58;100981.56;5023586;28;45251;-70
2022/06/26 05:59:36;;;;;;;;;2.00;2.00;;;;;18.08;51.45;100905.00;5024164;28;46303;-71
2022/06/26 06:02:01;;;;;;;;;2.33;2.33;;;;;18.44;51.42;100961.72;5016473;28;45337;-69
2022/06/26 06:04:26;;;;;;;;;3.00;1.00;;;;;18.57;51.46;100985.13;5015301;28;45414;-71
2022/06/26 06:06:52;;;;;;;;;3.33;2.67;;;;;18.55;51.47;100979.72;5026934;28;45049;-72
2022/06/26 06:09:17;;;;;;;;;1.67;1.67;;;;;18.41;51.23;100947.31;5030353;28;45006;-70
2022/06/26 06:11:42;;;;;;;;;1.67;1.00;;;;;18.73;51.28;100983.28;5019554;28;45439;-70
2022/06/26 06:14:08;;;;;;;;;2.33;2.00;;;;;18.86;50.67;100986.88;5014395;28;45458;-71
2022/06/26 06:16:33;;;;;;;;;3.67;2.33;;;;;18.94;50.72;100990.44;5023481;28;45633;-70
2022/06/26 06:18:58;;;;;;;;;2.00;1.00;;;;;18.48;50.25;100909.38;5013076;28;45895;-72
2022/06/26 06:21:24;;;;;;;;;6.00;1.33;;;;;18.99;50.05;100994.06;5013502;28;45501;-71
2022/06/26 06:23:49;;;;;;;;;2.33;2.33;;;;;19.02;50.06;100996.72;5017872;28;45429;-71
2022/06/26 06:26:15;;;;;;;;;3.67;3.00;;;;;18.81;49.83;100957.09;5015632;28;45412;-72
2022/06/26 06:28:41;;;;;;;;;3.00;1.00;;;;;18.95;49.53;100987.72;5028290;28;47366;-73
2022/06/26 06:31:06;;;;;;;;;2.67;2.00;;;;;19.04;49.74;101003.06;5015659;28;45356;-71
2022/06/26 06:33:32;;;;;;;;;1.33;1.33;;;;;19.08;49.74;101003.94;5013220;28;45422;-70
2022/06/26 06:35:57;;;;;;;;;1.33;1.33;;;;;19.10;49.39;101005.72;5013313;28;45577;-72
2022/06/26 06:38:23;;;;;;;;;2.33;1.00;;;;;18.73;49.31;100949.00;5014296;28;45400;-73
2022/06/26 06:40:49;;;;;;;;;3.00;2.67;;;;;19.16;49.23;101012.94;5013290;28;45392;-71
2022/06/26 06:43:15;;;;;;;;;0.67;0.67;;;;;19.07;49.29;100997.63;5029984;28;45413;-71
2022/06/26 06:45:40;;;;;;;;;2.00;0.67;;;;;19.17;49.11;101000.28;5014144;28;45343;-71
2022/06/26 06:48:06;;;;;;;;;4.00;4.00;;;;;19.21;49.12;101007.50;5031263;28;46630;-71
2022/06/26 06:50:32;;;;;;;;;5.00;3.00;;;;;19.24;49.13;101010.19;5030297;28;45195;-72
2022/06/26 06:52:58;;;;;;;;;2.00;2.00;;;;;19.28;48.84;101017.38;5029775;28;45022;-71
2022/06/26 06:55:23;;;;;;;;;2.00;1.00;;;;;19.34;48.15;101018.25;5028604;28;45329;-70
2022/06/26 06:57:49;;;;;;;;;4.67;3.33;;;;;19.36;48.78;101009.22;5030998;28;45728;-72
2022/06/26 07:00:14;;;;;;;;;4.00;2.00;;;;;19.47;48.39;101027.22;5033446;28;45021;-71
2022/06/26 07:02:40;;;;;;;;;3.00;3.00;;;;;19.46;47.58;101024.50;5032283;28;45136;-72
2022/06/26 07:05:07;;;;;;;;;1.67;1.00;;;;;19.46;47.71;101030.81;5030590;28;45326;-71
2022/06/26 07:07:36;;;;;;;;;2.00;1.00;;;;;19.50;47.52;101020.84;5014032;28;46480;-72
2022/06/26 07:10:02;;;;;;;;;2.67;2.00;;;;;19.12;45.73;100970.50;5015535;28;45340;-71
2022/06/26 07:12:28;;;;;;;;;1.00;1.00;;;;;19.30;46.34;101031.81;5015620;28;45412;-71
2022/06/26 07:14:53;;;;;;;;;0.33;0.33;;;;;19.12;46.02;100981.34;5016421;28;45464;-72
2022/06/26 07:17:21;;;;;;;;;4.00;2.00;;;;;19.40;46.19;101036.28;5021852;28;45303;-72
2022/06/26 07:19:47;;;;;;;;;3.00;1.00;;;;;19.20;46.18;101013.81;5017700;28;45615;-71
2022/06/26 07:22:12;;;;;;;;;4.00;4.00;;;;;19.36;45.07;101041.72;5016770;28;45449;-72
2022/06/26 07:24:39;;;;;;;;;2.33;2.33;;;;;19.45;45.25;101048.00;5015317;28;45597;-74
2022/06/26 07:27:04;;;;;;;;;1.00;1.00;;;;;19.50;44.53;101040.75;5015394;28;45445;-72
2022/06/26 07:29:30;;;;;;;;;3.00;3.00;;;;;19.49;44.30;101035.34;5015199;28;45546;-73
2022/06/26 07:31:55;;;;;;;;;3.00;1.67;;;;;19.61;43.65;101061.47;5018389;28;45304;-72
2022/06/26 07:34:22;;;;;;;;;0.00;0.00;;;;;19.48;42.31;101060.63;5015777;28;45672;-73
2022/06/26 07:36:49;;;;;;;;;1.00;1.00;;;;;19.37;43.47;101052.56;5017272;28;45280;-73
2022/06/26 07:39:18;;;;;;;;;5.33;1.33;;;;;19.50;43.73;101053.38;5018443;28;45333;-73
2022/06/26 07:41:44;;;;;;;;;2.00;1.33;;;;;19.74;43.90;101076.72;5015495;28;45362;-74
2022/06/26 07:44:10;;;;;;;;;4.00;1.33;;;;;19.80;43.38;101051.41;5014910;28;45535;-72
2022/06/26 07:46:37;;;;;;;;;2.00;1.67;;;;;19.97;43.57;101073.00;5014875;28;46016;-72
2022/06/26 07:49:03;;;;;;;;;1.33;1.00;;;;;20.06;42.06;101065.72;5015308;28;45542;-73
2022/06/26 07:51:30;;;;;;;;;1.67;1.67;;;;;20.02;41.54;101039.50;5013134;28;45514;-73
2022/06/26 07:53:55;;;;;;;;;2.00;1.00;;;;;20.25;41.70;101058.31;5016148;28;45502;-73
2022/06/26 07:56:21;;;;;;;;;2.00;2.00;;;;;20.43;41.46;101072.63;5022031;28;45493;-73
2022/06/26 07:58:47;;;;;;;;;3.67;2.33;;;;;20.43;41.34;101059.06;5018713;28;45331;-72
2022/06/26 08:01:12;;;;;;;;;2.67;0.33;;;;;20.57;40.31;101072.50;5016701;28;45486;-73
2022/06/26 08:03:38;;;;;;;;;1.00;1.00;;;;;20.58;40.24;101068.88;5016202;28;45470;-72
2022/06/26 08:06:03;;;;;;;;;1.00;1.00;;;;;20.58;39.11;101068.88;5015138;28;45470;-72
2022/06/26 08:08:28;;;;;;;;;1.33;1.33;;;;;20.43;39.29;101054.53;5023445;28;45383;-71
2022/06/26 08:10:54;;;;;;;;;0.00;0.00;;;;;20.65;39.45;101067.91;5029385;28;44920;-71
2022/06/26 08:13:19;;;;;;;;;1.33;1.33;;;;;20.60;39.34;101042.59;5030209;28;45246;-74
2022/06/26 08:15:45;;;;;;;;;1.00;1.00;;;;;20.76;38.20;101056.97;5025267;28;45660;-73
2022/06/26 08:18:11;;;;;;;;;1.00;1.00;;;;;20.77;38.37;101035.22;5029151;28;44844;-74
2022/06/26 08:20:36;;;;;;;;;1.00;1.00;;;;;20.85;38.43;101036.94;5030290;28;44894;-74
2022/06/26 08:23:02;;;;;;;;;1.67;1.67;;;;;20.99;38.76;101065.75;5030312;28;45455;-73
2022/06/26 08:25:27;;;;;;;;;1.33;0.67;;;;;21.11;38.62;101059.25;5029094;28;45434;-74
2022/06/26 08:27:52;;;;;;;;;3.00;2.00;;;;;21.19;38.52;101067.31;5030411;28;45165;-74
2022/06/26 08:30:18;;;;;;;;;7.00;4.00;;;;;21.13;38.33;101067.38;5031316;28;45342;-73
2022/06/26 08:32:43;;;;;;;;;2.33;2.33;;;;;21.14;38.38;101056.50;5029469;28;44968;-73
2022/06/26 08:35:11;;;;;;;;;1.33;0.00;;;;;21.20;37.99;101062.78;5026967;28;47486;-74
2022/06/26 08:37:37;;;;;;;;;1.00;1.00;;;;;21.24;38.41;101064.56;5028596;28;45552;-73
2022/06/26 08:40:03;;;;;;;;;4.67;4.67;;;;;21.26;38.36;101055.44;5029078;28;45173;-73
2022/06/26 08:42:30;;;;;;;;;5.00;5.00;;;;;21.16;38.43;101035.63;5029689;28;45609;-74
2022/06/26 08:44:59;;;;;;;;;3.00;1.33;;;;;21.38;38.49;101065.25;5029027;28;45777;-76
2022/06/26 08:47:28;;;;;;;;;1.33;1.33;;;;;21.28;37.71;101030.97;5029808;28;45383;-72
2022/06/26 08:49:55;;;;;;;;;1.33;1.00;;;;;21.42;37.71;101056.16;5030730;28;45054;-75
2022/06/26 08:52:21;;;;;;;;;3.00;1.33;;;;;21.47;37.83;101076.03;5030111;28;45244;-73
2022/06/26 08:54:48;;;;;;;;;1.00;1.00;;;;;21.39;37.09;101048.03;5024958;28;46243;-73
2022/06/26 08:57:17;;;;;;;;;1.00;1.00;;;;;21.51;36.97;101044.28;5030116;28;45293;-73
2022/06/26 08:59:43;;;;;;;;;4.00;1.67;;;;;21.72;36.33;101038.53;5045157;28;45052;-74
2022/06/26 09:02:08;;;;;;;;;2.00;1.67;;;;;21.68;36.29;101034.06;5028924;28;45016;-75
2022/06/26 09:04:36;;;;;;;;;1.00;1.00;;;;;21.48;36.65;101007.19;5025779;28;45460;-72
2022/06/26 09:07:01;;;;;;;;;0.67;0.67;;;;;21.84;36.49;101020.22;5032259;28;45230;-72
2022/06/26 09:09:28;;;;;;;;;1.00;1.00;;;;;21.65;36.39;100949.81;5031325;28;44865;-73
2022/06/26 09:12:00;;;;;;;;;3.00;1.33;;;;;22.18;35.51;101033.28;5029578;28;45077;-74
2022/06/26 09:14:27;;;;;;;;;1.00;1.00;;;;;22.12;36.02;101017.03;5028491;28;45472;-73
2022/06/26 09:16:53;;;;;;;;;2.67;1.00;;;;;22.31;35.37;101015.84;5026310;28;45057;-72
2022/06/26 09:19:23;;;;;;;;;2.67;2.00;;;;;22.18;35.53;100981.56;5025560;28;45160;-73
2022/06/26 09:21:49;;;;;;;;;2.00;2.00;;;;;22.44;35.15;101020.13;5032514;28;45181;-71
2022/06/26 09:24:17;;;;;;;;;1.00;1.00;;;;;22.42;33.85;100994.75;5031002;28;45234;-72
2022/06/26 09:26:44;;;;;;;;;1.00;1.00;;;;;22.34;34.10;101013.06;5031830;28;46153;-72
2022/06/26 09:29:11;;;;;;;;;3.00;1.00;;;;;22.19;34.18;101000.59;5031852;28;45095;-72
2022/06/26 09:31:38;;;;;;;;;3.67;1.67;;;;;22.21;34.03;101012.34;5032114;28;45152;-72
2022/06/26 09:34:05;;;;;;;;;1.00;1.00;;;;;22.14;33.82;100998.84;5031772;28;45184;-72
2022/06/26 09:36:30;;;;;;;;;0.67;0.67;;;;;22.29;34.15;101014.06;5031557;28;45250;-70
2022/06/26 09:38:55;;;;;;;;;3.00;1.00;;;;;22.40;33.59;101012.03;5023627;28;45070;-72
2022/06/26 09:41:29;;;;;;;;;2.67;1.67;;;;;22.40;33.75;101012.03;5031794;28;45170;-72
2022/06/26 09:43:55;;;;;;;;;2.00;2.00;;;;;22.42;34.05;100999.28;5025267;28;45509;-72
2022/06/26 09:46:28;;;;;;;;;2.00;2.00;;;;;22.41;34.26;101014.75;5029591;28;45170;-72
2022/06/26 09:48:55;;;;;;;;;2.67;1.00;;;;;22.42;34.40;101012.91;5024078;28;45208;-73
2022/06/26 09:51:23;;;;;;;;;1.00;1.00;;;;;22.27;34.69;100986.81;5028863;28;45171;-73
2022/06/26 09:53:48;;;;;;;;;3.00;1.00;;;;;22.26;34.97;101005.00;5028256;28;45377;-73
2022/06/26 09:56:14;;;;;;;;;2.67;2.67;;;;;22.22;35.08;101018.69;5028203;28;45021;-73
2022/06/26 09:58:40;;;;;;;;;1.00;1.00;;;;;22.19;35.26;101016.91;5029018;28;45280;-73
2022/06/26 10:06:34;;;;;;;;;1.67;1.67;;;;;21.97;35.21;100991.00;5029280;28;45145;-73
2022/06/26 10:09:00;;;;;;;;;2.00;2.00;;;;;21.87;35.51;100988.41;5030049;28;44943;-72
2022/06/26 10:11:31;;;;;;;;;2.33;1.00;;;;;21.85;35.73;100994.81;5029471;28;45108;-73
2022/06/26 10:14:02;;;;;;;;;3.00;3.00;;;;;21.72;35.80;100985.97;5028570;28;46677;-72
2022/06/26 10:16:36;;;;;;;;;2.67;2.67;;;;;21.84;36.50;101015.66;5028894;28;45275;-73
2022/06/26 10:19:10;;;;;;;;;1.00;1.00;;;;;21.95;35.85;101018.22;5028659;28;45435;-73
2022/06/26 10:21:37;;;;;;;;;3.00;3.00;;;;;21.97;34.83;100996.44;5028873;28;45263;-73
2022/06/26 10:24:04;;;;;;;;;1.67;1.67;;;;;21.88;34.55;100970.28;5027404;28;45509;-71
2022/06/26 10:26:30;;;;;;;;;3.00;3.00;;;;;21.83;34.93;100967.66;5028757;28;45012;-72
2022/06/26 10:28:59;;;;;;;;;0.33;0.33;;;;;22.14;34.18;101007.03;5026891;28;45407;-71
2022/06/26 10:31:25;;;;;;;;;3.33;2.00;;;;;21.94;34.32;100963.84;5031369;28;45228;-72
2022/06/26 10:33:51;;;;;;;;;1.00;1.00;;;;;22.20;33.01;101017.81;5030398;28;45638;-73
2022/06/26 10:36:21;;;;;;;;;0.00;0.00;;;;;22.06;33.05;100979.97;5032120;28;44989;-72
2022/06/26 10:38:47;;;;;;;;;1.00;1.00;;;;;22.05;33.34;100968.16;5049671;28;45171;-72
2022/06/26 10:44:06;;;;;;;;;1.00;1.00;;;;;22.36;33.07;100980.38;5023817;28;45507;-71
2022/06/26 10:46:37;;;;;;;;;2.33;2.33;;;;;22.12;34.07;100936.28;5028126;28;45439;-73
2022/06/26 10:49:08;;;;;;;;;2.00;2.00;;;;;22.48;34.51;101007.34;5031132;28;45003;-73
2022/06/26 10:51:34;;;;;;;;;4.67;2.00;;;;;22.55;34.83;101014.47;5031283;28;45150;-74
2022/06/26 10:54:01;;;;;;;;;5.00;4.00;;;;;22.67;34.83;101021.53;5030284;28;45740;-73
2022/06/26 10:56:27;;;;;;;;;3.33;2.67;;;;;22.55;35.21;100998.13;5033899;28;45334;-73
2022/06/26 10:59:00;;;;;;;;;1.00;1.00;;;;;22.68;36.19;101020.56;5033012;28;46010;-73
2022/06/26 11:01:26;;;;;;;;;2.00;2.00;;;;;22.79;36.42;101018.53;5032953;28;45032;-71
2022/06/26 11:03:51;;;;;;;;;4.00;4.00;;;;;22.87;36.20;101003.84;5033425;28;45668;-72
2022/06/26 11:06:17;;;;;;;;;5.00;3.00;;;;;22.86;35.89;101012.97;5031795;28;45400;-71
2022/06/26 11:08:48;;;;;;;;;6.67;3.33;;;;;22.85;35.81;101014.81;5029827;28;45144;-71
2022/06/26 11:11:23;;;;;;;;;2.33;2.33;;;;;23.01;35.25;101004.47;5034373;28;45109;-71
2022/06/26 11:13:55;;;;;;;;;2.00;2.00;;;;;23.02;35.59;101009.00;5033240;28;45642;-74
2022/06/26 11:16:34;;;;;;;;;4.67;2.67;;;;;23.12;35.18;101007.03;5033149;28;45127;-73
2022/06/26 11:19:03;;;;;;;;;4.33;4.00;;;;;23.18;35.20;100996.88;5034204;28;45378;-73
2022/06/26 11:21:29;;;;;;;;;9.00;7.00;;;;;23.27;35.10;100997.63;5033920;28;45269;-71
2022/06/26 11:23:54;;;;;;;;;2.00;2.00;;;;;23.40;34.80;100995.50;5031222;28;47412;-71
2022/06/26 11:26:21;;;;;;;;;9.33;5.67;;;;;23.34;34.85;100991.09;5033358;28;45240;-72
2022/06/26 11:28:54;;;;;;;;;2.00;2.00;;;;;23.11;34.26;100953.44;5031691;28;45028;-72
2022/06/26 11:31:22;;;;;;;;;3.00;2.33;;;;;23.41;34.48;100983.66;5030436;28;45501;-73
2022/06/26 11:33:47;;;;;;;;;1.00;1.00;;;;;23.57;33.87;100981.47;5029705;28;45172;-72